createdAt,value
2019-06-01T00:03:49.648Z,11.40
2019-06-01T00:09:20.454Z,11.44
2019-06-01T00:14:43.658Z,11.40
2019-06-01T00:25:15.494Z,11.24
2019-06-01T00:30:46.301Z,11.25
2019-06-01T00:36:17.124Z,11.17
2019-06-01T00:41:48.100Z,11.16
2019-06-01T00:47:19.001Z,11.13
2019-06-01T00:52:49.732Z,11.07
2019-06-01T00:58:20.229Z,10.99
2019-06-01T01:03:52.250Z,11.03
2019-06-01T01:09:21.698Z,10.89
2019-06-01T01:19:45.871Z,10.75
2019-06-01T01:25:17.300Z,10.81
2019-06-01T01:31:02.682Z,10.76
2019-06-01T01:36:19.871Z,10.67
2019-06-01T01:41:48.695Z,10.59
2019-06-01T01:47:18.956Z,10.58
2019-06-01T01:52:50.541Z,10.52
2019-06-01T01:58:19.343Z,10.50
2019-06-01T02:03:51.433Z,10.50
2019-06-01T02:09:20.077Z,10.61
2019-06-01T02:19:44.988Z,10.54
2019-06-01T02:25:16.107Z,10.50
2019-06-01T02:30:46.146Z,10.31
2019-06-01T02:36:16.726Z,10.29
2019-06-01T02:47:17.471Z,10.17
2019-06-01T02:52:48.606Z,10.12
2019-06-01T02:58:19.264Z,10.12
2019-06-01T03:03:49.888Z,10.18
2019-06-01T03:09:20.348Z,10.17
2019-06-01T03:19:43.941Z,10.05
2019-06-01T03:25:14.033Z,10.12
2019-06-01T03:30:46.184Z,10.12
2019-06-01T03:41:46.188Z,10.08
2019-06-01T03:47:17.033Z,10.07
2019-06-01T03:52:47.531Z,10.18
2019-06-01T03:58:18.570Z,10.25
2019-06-01T04:03:49.381Z,10.52
2019-06-01T04:14:42.362Z,10.96
2019-06-01T04:19:43.406Z,10.99
2019-06-01T04:25:14.201Z,11.04
2019-06-01T04:30:44.370Z,11.20
2019-06-01T04:36:15.125Z,11.31
2019-06-01T04:41:45.568Z,11.52
2019-06-01T04:47:15.718Z,11.73
2019-06-01T04:52:46.426Z,11.94
2019-06-01T04:58:16.976Z,12.04
2019-06-01T05:03:47.937Z,12.21
2019-06-01T05:09:18.577Z,12.37
2019-06-01T05:14:42.398Z,12.45
2019-06-01T05:19:42.952Z,12.57
2019-06-01T05:25:13.725Z,12.64
2019-06-01T05:30:44.005Z,12.84
2019-06-01T05:36:14.699Z,13.05
2019-06-01T05:52:47.371Z,13.92
2019-06-01T06:03:47.576Z,14.60
2019-06-01T06:09:19.143Z,14.71
2019-06-01T06:14:42.301Z,14.84
2019-06-01T06:25:14.194Z,15.46
2019-06-01T06:30:44.273Z,15.68
2019-06-01T06:36:15.597Z,15.92
2019-06-01T06:41:45.361Z,16.08
2019-06-01T06:47:16.689Z,16.31
2019-06-01T06:52:46.366Z,16.62
2019-06-01T06:58:18.622Z,16.86
2019-06-01T07:03:47.948Z,17.06
2019-06-01T07:09:18.461Z,17.26
2019-06-01T07:19:42.129Z,17.68
2019-06-01T07:25:12.425Z,17.78
2019-06-01T07:41:44.158Z,18.44
2019-06-01T07:52:45.472Z,18.43
2019-06-01T07:58:16.118Z,18.59
2019-06-01T08:09:17.068Z,18.85
2019-06-01T08:14:40.174Z,18.81
2019-06-01T08:19:41.202Z,19.01
2019-06-01T08:30:42.449Z,19.29
2019-06-01T08:36:13.118Z,19.51
2019-06-01T08:41:43.482Z,19.61
2019-06-01T08:47:14.298Z,19.57
2019-06-01T08:52:44.871Z,19.71
2019-06-01T09:03:46.990Z,19.65
2019-06-01T09:09:17.280Z,19.80
2019-06-01T09:14:40.358Z,19.38
2019-06-01T09:19:41.009Z,19.47
2019-06-01T09:25:11.857Z,19.87
2019-06-01T09:30:42.736Z,19.77
2019-06-01T09:41:44.526Z,19.85
2019-06-01T09:47:14.459Z,19.84
2019-06-01T09:52:45.443Z,19.92
2019-06-01T09:58:15.599Z,19.90
2019-06-01T10:03:45.905Z,20.24
2019-06-01T10:14:39.426Z,20.79
2019-06-01T10:19:39.531Z,20.60
2019-06-01T10:25:10.539Z,20.49
2019-06-01T10:36:20.699Z,21.04
2019-06-01T10:41:42.471Z,21.13
2019-06-01T10:47:13.692Z,20.62
2019-06-01T10:58:14.331Z,21.41
2019-06-01T11:03:46.171Z,21.68
2019-06-01T11:09:16.349Z,21.61
2019-06-01T11:14:41.302Z,21.28
2019-06-01T11:19:41.927Z,21.56
2019-06-01T11:25:10.322Z,21.34
2019-06-01T11:30:41.819Z,21.89
2019-06-01T11:36:10.903Z,21.87
2019-06-01T11:47:11.509Z,21.90
2019-06-01T11:52:41.823Z,21.56
2019-06-01T12:03:43.929Z,22.21
2019-06-01T12:09:13.129Z,22.09
2019-06-01T12:14:36.466Z,21.53
2019-06-01T12:30:37.573Z,22.22
2019-06-01T12:36:08.255Z,21.82
2019-06-01T12:41:39.747Z,21.90
2019-06-01T12:58:10.074Z,22.28
2019-06-01T13:09:11.209Z,21.48
2019-06-01T13:14:34.478Z,21.44
2019-06-01T13:25:05.644Z,21.63
2019-06-01T13:36:06.895Z,22.66
2019-06-01T13:41:37.678Z,22.42
2019-06-01T13:52:39.077Z,22.68
2019-06-01T13:58:09.108Z,21.59
2019-06-01T14:03:39.706Z,22.48
2019-06-01T14:14:33.761Z,21.24
2019-06-01T14:19:34.233Z,21.16
2019-06-01T14:25:12.939Z,20.97
2019-06-01T14:30:35.374Z,21.39
2019-06-01T14:36:05.426Z,21.38
2019-06-01T14:41:36.175Z,20.89
2019-06-01T14:52:37.737Z,21.17
2019-06-01T14:58:07.930Z,21.28
2019-06-01T15:03:38.135Z,21.58
2019-06-01T15:09:18.571Z,21.74
2019-06-01T15:14:31.969Z,21.10
2019-06-01T15:19:32.421Z,21.07
2019-06-01T15:25:03.599Z,21.91
2019-06-01T15:30:33.884Z,22.16
2019-06-01T15:36:04.518Z,20.91
2019-06-01T15:41:34.848Z,20.57
2019-06-01T15:47:05.750Z,20.36
2019-06-01T15:58:06.601Z,19.92
2019-06-01T16:03:37.238Z,19.67
2019-06-01T16:19:32.345Z,19.00
2019-06-01T16:25:04.363Z,19.19
2019-06-01T16:36:05.565Z,18.93
2019-06-01T16:41:36.283Z,18.90
2019-06-01T16:52:36.136Z,18.60
2019-06-01T17:03:37.158Z,18.42
2019-06-01T17:09:07.518Z,18.43
2019-06-01T17:19:30.940Z,18.33
2019-06-01T17:30:32.632Z,18.19
2019-06-01T17:36:02.910Z,18.05
2019-06-01T17:41:33.466Z,17.98
2019-06-01T17:52:34.677Z,17.73
2019-06-01T17:58:05.589Z,17.59
2019-06-01T18:03:36.457Z,17.45
2019-06-01T18:09:08.151Z,17.34
2019-06-01T18:14:29.819Z,17.22
2019-06-01T18:19:31.222Z,17.15
2019-06-01T18:30:31.695Z,17.04
2019-06-01T18:36:03.368Z,16.95
2019-06-01T18:41:32.353Z,16.85
2019-06-01T18:47:03.593Z,16.72
2019-06-01T19:03:34.584Z,16.34
2019-06-01T19:14:28.901Z,16.15
2019-06-01T19:19:29.448Z,16.11
2019-06-01T19:24:59.597Z,16.08
2019-06-01T19:41:44.210Z,15.83
2019-06-01T19:47:01.895Z,15.66
2019-06-01T19:52:32.994Z,15.54
2019-06-01T19:58:03.095Z,15.57
2019-06-01T20:03:33.662Z,15.65
2019-06-01T20:14:27.514Z,15.50
2019-06-01T20:19:28.311Z,15.37
2019-06-01T20:24:59.434Z,15.37
2019-06-01T20:30:29.831Z,15.33
2019-06-01T20:36:00.862Z,15.24
2019-06-01T20:52:32.279Z,15.22
2019-06-01T20:58:03.144Z,15.03
2019-06-01T21:03:33.370Z,15.00
2019-06-01T21:09:04.484Z,15.03
2019-06-01T21:14:27.454Z,14.81
2019-06-01T21:19:28.548Z,14.90
2019-06-01T21:24:59.155Z,14.95
2019-06-01T21:30:30.204Z,14.85
2019-06-01T21:41:30.992Z,14.65
2019-06-01T21:47:01.809Z,14.58
2019-06-01T21:52:32.889Z,14.48
2019-06-01T21:58:02.988Z,14.52
2019-06-01T22:03:33.575Z,14.56
2019-06-01T22:14:27.785Z,14.36
2019-06-01T22:19:28.171Z,14.30
2019-06-01T22:24:58.834Z,14.39
2019-06-01T22:30:29.471Z,14.31
2019-06-01T22:36:01.640Z,14.31
2019-06-01T22:41:32.321Z,14.26
2019-06-01T22:47:01.894Z,14.22
2019-06-01T22:52:33.185Z,14.19
2019-06-01T22:58:03.071Z,14.16
2019-06-01T23:03:34.469Z,14.04
2019-06-01T23:09:04.730Z,13.90
2019-06-01T23:14:27.820Z,13.79
2019-06-01T23:19:29.972Z,13.73
2019-06-01T23:24:59.915Z,13.68
2019-06-01T23:30:30.265Z,13.57
2019-06-01T23:41:30.949Z,13.45
2019-06-01T23:47:01.073Z,13.40
2019-06-01T23:52:31.693Z,13.37
2019-06-01T23:58:01.939Z,13.34
